Time;durP1;ratioP1;P1;durP2;ratioP2;P2;SDS_P1;SDS_P2;PMS_P1;PMS_P2;Temp;Humidity;BMP_temperature;BMP_pressure;BME280_temperature;BME280_humidity;BME280_pressure;Samples;Min_cycle;Max_cycle;Signal;HPM_P1;HPM_P2
2022/10/10 00:00:28;;;;;;;8.10;1.20;;;9.00;71.50;;;;;;4100861;28;20165;-83
2022/10/10 00:02:47;;;;;;;7.40;0.95;;;9.00;71.40;;;;;;4088872;28;20038;-83
2022/10/10 00:05:06;;;;;;;7.18;1.30;;;9.00;71.40;;;;;;4098598;28;20041;-82
2022/10/10 00:07:25;;;;;;;4.97;1.33;;;8.90;71.30;;;;;;4099781;28;20948;-82
2022/10/10 00:09:46;;;;;;;1.98;0.73;;;8.90;71.30;;;;;;4096607;28;20046;-82
2022/10/10 00:12:05;;;;;;;9.73;1.30;;;9.00;71.40;;;;;;4100639;28;20239;-83
2022/10/10 00:14:24;;;;;;;7.78;0.93;;;8.90;71.30;;;;;;4101447;28;20058;-82
2022/10/10 00:16:43;;;;;;;5.75;1.10;;;8.90;71.30;;;;;;4097645;28;20107;-83
2022/10/10 00:19:02;;;;;;;8.85;1.20;;;8.90;71.30;;;;;;4098865;28;20046;-83
2022/10/10 00:21:22;;;;;;;5.10;1.00;;;9.00;71.40;;;;;;4099316;28;20038;-83
2022/10/10 00:23:41;;;;;;;6.32;1.20;;;8.90;71.40;;;;;;4100039;28;20590;-82
2022/10/10 00:26:00;;;;;;;6.22;0.90;;;8.90;71.30;;;;;;4109217;28;22355;-84
2022/10/10 00:28:20;;;;;;;6.78;1.02;;;8.90;71.30;;;;;;4100066;28;20070;-83
2022/10/10 00:30:39;;;;;;;9.45;1.38;;;8.90;71.30;;;;;;4099724;28;20155;-83
2022/10/10 00:32:59;;;;;;;2.45;1.00;;;9.00;71.40;;;;;;4102215;28;20034;-84
2022/10/10 00:35:18;;;;;;;10.85;1.38;;;9.00;71.30;;;;;;4100701;28;20265;-83
2022/10/10 00:37:38;;;;;;;6.03;0.88;;;8.90;71.20;;;;;;4105602;28;20556;-83
2022/10/10 00:39:57;;;;;;;6.32;0.93;;;8.90;71.20;;;;;;4102872;28;20577;-84
2022/10/10 00:42:17;;;;;;;4.38;0.85;;;8.90;71.10;;;;;;4119602;28;20045;-83
2022/10/10 00:44:38;;;;;;;3.72;0.90;;;8.90;71.10;;;;;;4103797;28;20399;-84
2022/10/10 00:46:57;;;;;;;4.95;0.80;;;8.90;71.10;;;;;;4105227;28;20164;-84
2022/10/10 00:49:21;;;;;;;5.35;0.93;;;8.90;71.00;;;;;;4104507;28;20045;-83
2022/10/10 00:51:42;;;;;;;4.50;1.10;;;8.90;71.00;;;;;;4107059;28;20617;-84
2022/10/10 00:54:06;;;;;;;3.50;0.77;;;8.90;70.90;;;;;;4103765;28;20570;-83
2022/10/10 00:56:29;;;;;;;8.32;1.25;;;8.70;70.80;;;;;;4103702;28;20073;-84
2022/10/10 00:58:56;;;;;;;4.47;1.15;;;8.90;70.90;;;;;;4100011;28;20038;-83
2022/10/10 01:01:15;;;;;;;4.13;0.93;;;8.80;70.90;;;;;;4102829;28;20114;-82
2022/10/10 01:03:35;;;;;;;12.57;1.35;;;8.80;70.80;;;;;;4099226;28;20659;-82
2022/10/10 01:05:54;;;;;;;8.15;1.27;;;8.80;71.00;;;;;;4101185;28;20033;-84
2022/10/10 01:08:13;;;;;;;4.80;1.30;;;8.80;70.90;;;;;;4101425;28;20168;-84
2022/10/10 01:11:04;;;;;;;5.75;0.88;;;8.80;71.60;;;;;;4103147;28;20085;-84
2022/10/10 01:13:45;;;;;;;6.50;1.50;;;8.80;70.90;;;;;;4105306;28;20124;-84
2022/10/10 01:16:21;;;;;;;5.60;1.27;;;8.80;70.90;;;;;;4101479;28;20847;-84
2022/10/10 01:18:59;;;;;;;7.30;0.95;;;8.70;70.80;;;;;;4102437;28;20045;-83
2022/10/10 01:21:36;;;;;;;4.78;0.98;;;8.70;70.80;;;;;;4103278;28;20045;-83
2022/10/10 01:24:01;;;;;;;5.53;1.20;;;8.70;70.90;;;;;;4102898;28;20097;-84
2022/10/10 01:26:57;;;;;;;8.60;1.35;;;8.70;70.80;;;;;;4105569;28;20730;-84
2022/10/10 01:29:27;;;;;;;2.67;1.02;;;8.70;71.00;;;;;;4102042;28;20077;-83
2022/10/10 01:31:50;;;;;;;5.95;1.30;;;8.60;70.90;;;;;;4101191;28;20529;-84
2022/10/10 01:34:37;;;;;;;4.82;1.02;;;8.70;71.00;;;;;;4106983;28;20825;-84
2022/10/10 01:37:02;;;;;;;7.70;1.00;;;8.60;71.00;;;;;;4097211;28;20042;-84
2022/10/10 01:39:30;;;;;;;7.75;0.93;;;8.60;71.70;;;;;;4102774;28;20045;-84
2022/10/10 01:41:58;;;;;;;7.03;1.08;;;8.60;71.00;;;;;;4098462;28;20111;-83
2022/10/10 01:44:17;;;;;;;5.07;0.95;;;8.60;71.00;;;;;;4097439;28;20046;-84
2022/10/10 01:46:36;;;;;;;8.68;1.88;;;8.60;71.00;;;;;;4101812;28;20113;-84
2022/10/10 01:48:57;;;;;;;4.78;1.40;;;8.60;71.00;;;;;;4105791;28;20093;-84
2022/10/10 01:51:50;;;;;;;6.05;1.13;;;8.60;71.10;;;;;;4116500;28;20073;-84
2022/10/10 01:54:18;;;;;;;8.43;1.15;;;8.60;71.20;;;;;;4103810;28;20098;-85
2022/10/10 01:56:37;;;;;;;3.13;0.80;;;8.50;71.00;;;;;;4098495;28;20037;-85
2022/10/10 01:59:18;;;;;;;6.25;1.20;;;8.60;71.00;;;;;;4097366;28;20132;-84
2022/10/10 02:01:45;;;;;;;6.35;1.13;;;8.50;71.00;;;;;;4100232;28;20141;-83
2022/10/10 02:04:21;;;;;;;1.73;0.82;;;8.50;71.00;;;;;;4103407;28;20089;-84
2022/10/10 02:07:08;;;;;;;3.88;0.93;;;8.50;71.00;;;;;;4109604;28;20062;-83
2022/10/10 02:09:34;;;;;;;5.00;1.10;;;8.50;71.00;;;;;;4103542;28;20098;-83
2022/10/10 02:11:57;;;;;;;6.70;0.80;;;8.50;70.90;;;;;;4107503;28;20046;-83
2022/10/10 02:14:21;;;;;;;5.10;1.00;;;8.60;71.00;;;;;;4119811;28;20133;-84
2022/10/10 02:16:44;;;;;;;6.13;0.90;;;8.60;71.10;;;;;;4108723;28;20370;-85
2022/10/10 02:19:08;;;;;;;9.75;1.02;;;8.40;70.90;;;;;;4118393;28;20041;-84
2022/10/10 02:21:34;;;;;;;2.97;0.77;;;8.40;71.00;;;;;;4111153;28;20371;-83
2022/10/10 02:23:55;;;;;;;4.70;1.20;;;8.40;70.90;;;;;;4116849;28;20057;-84
2022/10/10 02:26:17;;;;;;;6.90;1.42;;;8.50;71.00;;;;;;4106618;28;20148;-85
2022/10/10 02:28:55;;;;;;;5.95;1.38;;;8.40;71.00;;;;;;4104713;28;20042;-84
2022/10/10 02:31:19;;;;;;;7.82;1.10;;;8.40;71.10;;;;;;4108019;28;20119;-84
2022/10/10 02:33:50;;;;;;;4.45;1.20;;;8.40;71.00;;;;;;4103975;28;20046;-85
2022/10/10 02:36:10;;;;;;;4.35;1.38;;;8.40;71.00;;;;;;4106878;28;20045;-84
2022/10/10 02:38:30;;;;;;;5.47;1.00;;;8.40;71.00;;;;;;4105713;28;20110;-85
2022/10/10 02:40:49;;;;;;;8.20;1.20;;;8.30;71.10;;;;;;4107055;28;20045;-86
2022/10/10 02:43:10;;;;;;;6.18;0.90;;;8.30;71.10;;;;;;4105547;28;20081;-85
2022/10/10 02:45:32;;;;;;;6.65;1.10;;;8.30;71.00;;;;;;4108102;28;20053;-85
2022/10/10 02:47:52;;;;;;;4.68;1.10;;;8.30;71.00;;;;;;4104700;28;20042;-84
2022/10/10 02:50:11;;;;;;;9.35;1.23;;;8.30;71.10;;;;;;4106243;28;20147;-85
2022/10/10 02:52:31;;;;;;;6.40;1.00;;;8.30;71.20;;;;;;4098785;28;20038;-84
2022/10/10 02:54:50;;;;;;;4.28;0.93;;;8.30;71.20;;;;;;4103658;28;20125;-84
2022/10/10 02:57:11;;;;;;;3.58;1.13;;;8.30;71.30;;;;;;4097000;28;20053;-84
2022/10/10 02:59:30;;;;;;;5.38;1.20;;;8.30;71.30;;;;;;4099299;28;20127;-84
2022/10/10 03:01:49;;;;;;;7.80;1.63;;;8.40;71.40;;;;;;4101907;28;20130;-84
2022/10/10 03:04:08;;;;;;;8.68;1.27;;;8.30;71.40;;;;;;4107280;28;20062;-84
2022/10/10 03:06:27;;;;;;;7.30;1.13;;;8.20;71.30;;;;;;4104807;28;20115;-85
2022/10/10 03:08:46;;;;;;;5.30;1.17;;;8.20;71.40;;;;;;4106538;28;20090;-84
2022/10/10 03:11:05;;;;;;;7.47;1.00;;;8.30;71.50;;;;;;4104930;28;20089;-84
2022/10/10 03:13:25;;;;;;;8.52;1.27;;;8.20;71.40;;;;;;4105697;28;20045;-84
2022/10/10 03:15:45;;;;;;;4.35;0.90;;;8.20;71.40;;;;;;4105420;28;20131;-85
2022/10/10 03:18:05;;;;;;;8.23;1.50;;;8.20;71.40;;;;;;4106414;28;20037;-85
2022/10/10 03:20:24;;;;;;;4.13;0.98;;;8.20;71.30;;;;;;4100953;28;20125;-84
2022/10/10 03:22:43;;;;;;;10.75;1.50;;;8.20;71.40;;;;;;4095471;28;20038;-84
2022/10/10 03:25:03;;;;;;;4.72;1.10;;;8.10;71.30;;;;;;4100987;28;20762;-85
2022/10/10 03:27:22;;;;;;;9.68;1.95;;;8.20;71.40;;;;;;4102768;28;20096;-84
2022/10/10 03:29:41;;;;;;;6.65;1.10;;;8.20;71.40;;;;;;4105222;28;20062;-85
2022/10/10 03:32:01;;;;;;;4.65;1.20;;;8.20;71.40;;;;;;4106053;28;20141;-84
2022/10/10 03:34:20;;;;;;;3.40;1.00;;;8.10;71.30;;;;;;4104088;28;20084;-85
2022/10/10 03:36:39;;;;;;;7.78;1.33;;;8.10;71.40;;;;;;4104703;28;20086;-85
2022/10/10 03:38:58;;;;;;;4.40;1.10;;;8.10;71.40;;;;;;4108016;28;20099;-85
2022/10/10 03:41:18;;;;;;;4.75;0.90;;;8.10;71.40;;;;;;4102725;28;20069;-85
2022/10/10 03:43:37;;;;;;;4.40;1.20;;;8.10;71.40;;;;;;4101742;28;20123;-86
2022/10/10 03:45:56;;;;;;;5.03;1.33;;;8.10;71.40;;;;;;4106242;28;20041;-85
2022/10/10 03:48:15;;;;;;;5.15;1.17;;;8.00;71.40;;;;;;4103291;28;20407;-85
2022/10/10 03:50:35;;;;;;;6.72;1.08;;;8.00;71.40;;;;;;4100474;28;20042;-84
2022/10/10 03:52:55;;;;;;;5.38;1.10;;;8.00;71.40;;;;;;4105638;28;20575;-84
2022/10/10 03:55:14;;;;;;;6.45;1.10;;;8.00;71.40;;;;;;4101175;28;20117;-85
2022/10/10 03:57:34;;;;;;;3.10;1.00;;;8.10;71.50;;;;;;4108865;28;20153;-84
2022/10/10 03:59:53;;;;;;;5.78;1.13;;;8.00;71.40;;;;;;4120188;28;20704;-84
2022/10/10 04:02:12;;;;;;;8.25;1.52;;;7.90;71.40;;;;;;4103827;28;20534;-84
2022/10/10 04:04:31;;;;;;;5.80;1.48;;;7.90;71.40;;;;;;4116220;28;20149;-83
2022/10/10 04:06:51;;;;;;;7.65;1.02;;;7.90;71.50;;;;;;4108429;28;20045;-84
2022/10/10 04:09:10;;;;;;;3.90;1.42;;;8.00;71.60;;;;;;4105253;28;20939;-83
2022/10/10 04:11:29;;;;;;;4.63;1.05;;;7.90;71.50;;;;;;4103778;28;20026;-84
2022/10/10 04:13:48;;;;;;;3.60;1.10;;;7.90;71.60;;;;;;4111081;28;20046;-82
2022/10/10 04:16:08;;;;;;;5.22;1.33;;;7.90;71.60;;;;;;4120296;28;20113;-84
2022/10/10 04:18:27;;;;;;;8.77;1.20;;;7.90;71.60;;;;;;4109737;28;20549;-84
2022/10/10 04:20:46;;;;;;;7.95;1.15;;;7.80;71.60;;;;;;4109805;28;20049;-84
2022/10/10 04:23:05;;;;;;;4.68;1.27;;;7.90;71.70;;;;;;4107355;28;20042;-84
2022/10/10 04:25:24;;;;;;;6.93;1.50;;;7.80;71.70;;;;;;4104308;28;20398;-84
2022/10/10 04:27:43;;;;;;;4.13;1.42;;;7.90;71.80;;;;;;4108761;28;20092;-84
2022/10/10 04:30:04;;;;;;;5.32;1.30;;;7.90;71.90;;;;;;4107441;28;20086;-84
2022/10/10 04:32:23;;;;;;;4.50;1.20;;;7.80;71.80;;;;;;4102415;28;20065;-84
2022/10/10 04:34:42;;;;;;;5.32;1.15;;;7.80;71.90;;;;;;4119631;28;20398;-84
2022/10/10 04:37:01;;;;;;;10.43;1.48;;;7.90;72.00;;;;;;4106246;28;20038;-84
2022/10/10 04:39:21;;;;;;;3.67;1.20;;;7.80;72.00;;;;;;4109720;28;20081;-84
2022/10/10 04:41:40;;;;;;;6.05;1.23;;;7.80;72.00;;;;;;4104944;28;20093;-84
2022/10/10 04:43:59;;;;;;;8.82;1.92;;;7.70;72.00;;;;;;4099868;28;20223;-84
2022/10/10 04:46:18;;;;;;;5.90;1.35;;;7.70;72.00;;;;;;4101617;28;20042;-83
2022/10/10 04:48:38;;;;;;;7.15;1.25;;;7.70;72.00;;;;;;4105035;28;20070;-85
2022/10/10 04:50:58;;;;;;;7.47;1.33;;;7.70;72.00;;;;;;4100376;28;20049;-84
2022/10/10 04:53:17;;;;;;;6.50;1.30;;;7.70;72.00;;;;;;4108592;28;20050;-84
2022/10/10 04:55:36;;;;;;;5.93;1.23;;;7.70;72.00;;;;;;4105912;28;20046;-84
2022/10/10 04:57:55;;;;;;;4.63;1.45;;;7.70;72.10;;;;;;4105010;28;20081;-83
2022/10/10 05:00:15;;;;;;;3.97;1.10;;;7.70;72.80;;;;;;4104049;28;20497;-84
2022/10/10 05:02:34;;;;;;;4.07;1.45;;;7.60;72.00;;;;;;4102664;28;20071;-85
2022/10/10 05:04:53;;;;;;;4.63;1.88;;;7.80;72.10;;;;;;4108105;28;20117;-84
2022/10/10 05:07:12;;;;;;;3.10;1.10;;;7.60;72.10;;;;;;4105710;28;20042;-85
2022/10/10 05:09:32;;;;;;;4.80;1.42;;;7.60;72.10;;;;;;4103674;28;20050;-84
2022/10/10 05:11:51;;;;;;;5.65;1.30;;;7.60;72.10;;;;;;4109958;28;20121;-84
2022/10/10 05:14:11;;;;;;;3.97;1.27;;;7.70;72.20;;;;;;4107263;28;20651;-85
2022/10/10 05:16:30;;;;;;;5.53;1.42;;;7.70;72.30;;;;;;4107888;28;20053;-85
2022/10/10 05:18:49;;;;;;;4.35;1.48;;;7.60;72.30;;;;;;4102972;28;20471;-85
2022/10/10 05:21:10;;;;;;;5.97;1.30;;;7.60;72.30;;;;;;4105912;28;20128;-86
2022/10/10 05:23:29;;;;;;;4.65;1.40;;;7.60;72.30;;;;;;4109600;28;20544;-86
2022/10/10 05:25:50;;;;;;;3.55;1.30;;;7.60;72.30;;;;;;4108400;28;20096;-86
2022/10/10 05:28:09;;;;;;;4.38;1.30;;;7.50;72.30;;;;;;4107820;28;20150;-86
2022/10/10 05:30:28;;;;;;;3.72;1.33;;;7.50;72.30;;;;;;4106418;28;20050;-87
2022/10/10 05:32:47;;;;;;;9.00;1.50;;;7.50;72.30;;;;;;4105812;28;20050;-87
2022/10/10 05:35:07;;;;;;;10.27;1.40;;;7.50;72.30;;;;;;4109891;28;20081;-85
2022/10/10 05:37:27;;;;;;;7.20;1.38;;;7.50;72.30;;;;;;4122867;28;20065;-85
2022/10/10 05:39:47;;;;;;;6.03;1.63;;;7.50;72.40;;;;;;4109309;28;20050;-84
2022/10/10 05:42:06;;;;;;;3.97;1.45;;;7.50;72.40;;;;;;4123173;28;20108;-83
2022/10/10 05:44:25;;;;;;;8.27;1.65;;;7.60;72.50;;;;;;4107605;28;20061;-84
2022/10/10 05:46:26;;;;;;;4.72;1.30;;;7.50;72.50;;;;;;4108317;28;20133;-84
2022/10/10 05:48:46;;;;;;;7.00;1.58;;;7.50;72.50;;;;;;4107907;28;20062;-85
2022/10/10 05:51:07;;;;;;;5.35;1.40;;;7.40;72.40;;;;;;4132787;28;20580;-84
2022/10/10 05:53:29;;;;;;;7.00;1.40;;;7.40;72.40;;;;;;4109386;28;20543;-85
2022/10/10 05:55:50;;;;;;;5.00;1.48;;;7.40;72.40;;;;;;4105465;28;20099;-84
2022/10/10 05:57:51;;;;;;;7.10;1.58;;;7.50;72.50;;;;;;4105908;28;20042;-85
2022/10/10 05:59:51;;;;;;;6.45;1.40;;;7.40;72.50;;;;;;4105477;28;20031;-85
2022/10/10 06:01:52;;;;;;;6.95;1.40;;;7.50;72.60;;;;;;4105191;28;20019;-85
2022/10/10 06:03:54;;;;;;;6.25;1.25;;;7.40;72.60;;;;;;4103873;28;20106;-84
2022/10/10 06:05:55;;;;;;;10.13;1.80;;;7.40;72.60;;;;;;4104289;28;20400;-84
2022/10/10 06:07:56;;;;;;;4.15;1.40;;;7.40;72.70;;;;;;4102822;28;20090;-85
2022/10/10 06:09:56;;;;;;;6.45;1.52;;;7.30;72.60;;;;;;4123605;28;20045;-84
2022/10/10 06:11:57;;;;;;;7.38;1.77;;;7.40;72.80;;;;;;4106640;28;20027;-84
2022/10/10 06:13:58;;;;;;;5.30;1.42;;;7.40;72.90;;;;;;4105322;28;20011;-84
2022/10/10 06:15:58;;;;;;;7.10;1.55;;;7.40;72.90;;;;;;4109786;28;20446;-83
2022/10/10 06:17:59;;;;;;;5.35;1.42;;;7.40;72.90;;;;;;4087405;28;20031;-83
2022/10/10 06:20:00;;;;;;;7.20;1.80;;;7.40;73.00;;;;;;4109333;28;20050;-84
2022/10/10 06:22:00;;;;;;;4.47;1.50;;;7.40;73.10;;;;;;4105111;28;20094;-82
2022/10/10 06:24:01;;;;;;;4.10;1.25;;;7.40;73.20;;;;;;4106577;28;20023;-83
2022/10/10 06:26:02;;;;;;;7.63;1.80;;;7.40;73.30;;;;;;4103266;28;20031;-83
2022/10/10 06:28:02;;;;;;;7.13;1.77;;;7.40;73.40;;;;;;4108253;28;20054;-84
2022/10/10 06:30:12;;;;;;;6.63;1.75;;;7.40;73.50;;;;;;4099492;28;20023;-83
2022/10/10 06:32:15;;;;;;;4.68;1.48;;;7.50;73.50;;;;;;4099204;28;20565;-83
2022/10/10 06:34:35;;;;;;;9.30;1.80;;;7.40;73.50;;;;;;4102125;28;20024;-83
2022/10/10 06:36:56;;;;;;;7.75;1.70;;;7.50;73.50;;;;;;4104135;28;20109;-83
2022/10/10 06:39:03;;;;;;;5.32;1.17;;;7.50;73.50;;;;;;4118263;28;20045;-85
2022/10/10 06:41:24;;;;;;;5.00;1.63;;;7.50;73.50;;;;;;4098586;28;20053;-85
2022/10/10 06:43:44;;;;;;;4.20;1.40;;;7.70;73.70;;;;;;4100297;28;20073;-85
2022/10/10 06:46:06;;;;;;;5.22;1.80;;;7.70;73.70;;;;;;4103438;28;20298;-84
2022/10/10 06:48:29;;;;;;;4.35;1.35;;;7.60;73.60;;;;;;4103787;28;20039;-84
2022/10/10 06:51:05;;;;;;;9.07;1.67;;;7.70;73.70;;;;;;4105484;28;20034;-85
2022/10/10 06:53:27;;;;;;;5.72;1.88;;;7.70;73.80;;;;;;4102792;28;20038;-84
2022/10/10 06:55:47;;;;;;;7.60;2.40;;;7.70;73.70;;;;;;4101538;28;20042;-84
2022/10/10 06:58:08;;;;;;;14.65;2.13;;;7.70;73.70;;;;;;4104637;28;20091;-83
2022/10/10 07:00:29;;;;;;;5.95;2.10;;;7.70;73.70;;;;;;4107457;28;20077;-85
2022/10/10 07:02:49;;;;;;;5.82;2.28;;;7.70;73.70;;;;;;4105988;28;20069;-85
2022/10/10 07:05:12;;;;;;;6.80;2.20;;;7.80;73.80;;;;;;4103105;28;20030;-83
2022/10/10 07:07:32;;;;;;;4.13;1.92;;;7.80;73.80;;;;;;4104259;28;20112;-85
2022/10/10 07:09:53;;;;;;;7.72;2.13;;;7.80;73.70;;;;;;4103765;28;20039;-84
2022/10/10 07:12:14;;;;;;;3.75;1.75;;;7.90;73.80;;;;;;4103851;28;20034;-85
2022/10/10 07:14:34;;;;;;;8.73;2.05;;;7.90;73.80;;;;;;4102572;28;20031;-84
2022/10/10 07:16:55;;;;;;;9.32;1.83;;;7.90;73.80;;;;;;4116377;28;20037;-83
2022/10/10 07:19:16;;;;;;;5.28;2.20;;;8.00;73.90;;;;;;4101087;28;20086;-84
2022/10/10 07:21:36;;;;;;;4.88;1.70;;;8.00;73.80;;;;;;4101210;28;20027;-84
2022/10/10 07:23:57;;;;;;;6.93;2.00;;;8.10;73.90;;;;;;4105675;28;20031;-85
2022/10/10 07:26:21;;;;;;;7.63;2.13;;;8.00;73.90;;;;;;4103457;28;20043;-83
2022/10/10 07:28:41;;;;;;;6.30;2.00;;;8.10;74.00;;;;;;4102927;28;20093;-86
2022/10/10 07:31:08;;;;;;;8.18;1.95;;;8.20;74.00;;;;;;4101953;28;20038;-85
2022/10/10 07:33:38;;;;;;;6.05;1.80;;;8.10;74.00;;;;;;4117608;28;20091;-84
2022/10/10 07:35:59;;;;;;;6.18;1.75;;;8.20;74.00;;;;;;4118273;28;20035;-85
2022/10/10 07:38:20;;;;;;;13.68;1.85;;;8.20;73.90;;;;;;4106559;28;20031;-84
2022/10/10 07:40:40;;;;;;;6.70;2.40;;;8.30;73.90;;;;;;4104952;28;20070;-84
2022/10/10 07:43:01;;;;;;;8.55;2.30;;;8.30;73.90;;;;;;4104102;28;20035;-85
2022/10/10 07:45:22;;;;;;;8.07;2.53;;;8.30;73.90;;;;;;4101869;28;20031;-86
2022/10/10 07:47:42;;;;;;;12.85;2.53;;;8.50;74.20;;;;;;4102856;28;20482;-85
2022/10/10 07:50:05;;;;;;;5.15;1.77;;;8.40;74.00;;;;;;4100324;28;20027;-85
2022/10/10 07:52:25;;;;;;;3.58;1.63;;;8.50;74.00;;;;;;4103967;28;20041;-85
2022/10/10 07:54:46;;;;;;;5.88;1.50;;;8.50;74.10;;;;;;4104966;28;20068;-85
2022/10/10 07:57:06;;;;;;;7.22;1.63;;;8.60;74.00;;;;;;4105193;28;20360;-85
2022/10/10 07:59:27;;;;;;;6.25;1.20;;;8.60;74.00;;;;;;4100771;28;20131;-85
2022/10/10 08:01:48;;;;;;;3.35;1.45;;;8.70;74.00;;;;;;4102410;28;20129;-85
2022/10/10 08:04:09;;;;;;;7.75;2.15;;;8.70;74.00;;;;;;4102684;28;20027;-85
2022/10/10 08:06:28;;;;;;;6.72;2.10;;;8.80;74.00;;;;;;4100961;28;20045;-85
2022/10/10 08:08:48;;;;;;;8.85;2.00;;;8.90;74.00;;;;;;4104511;28;20317;-85
2022/10/10 08:11:09;;;;;;;5.07;1.65;;;9.00;74.00;;;;;;4102643;28;20574;-85
2022/10/10 08:13:28;;;;;;;3.65;1.40;;;9.00;74.00;;;;;;4099666;28;20046;-86
2022/10/10 08:15:50;;;;;;;5.35;1.90;;;9.10;73.90;;;;;;4117396;28;20563;-84
2022/10/10 08:18:09;;;;;;;7.60;1.80;;;9.10;73.80;;;;;;4102802;28;20041;-84
2022/10/10 08:20:28;;;;;;;7.00;2.00;;;9.30;73.90;;;;;;4104303;28;20265;-85
2022/10/10 08:22:48;;;;;;;6.97;2.20;;;9.20;73.80;;;;;;4097219;28;20162;-84
2022/10/10 08:25:07;;;;;;;6.57;1.83;;;9.30;73.70;;;;;;4102127;28;21077;-85
2022/10/10 08:27:27;;;;;;;6.25;1.63;;;9.40;73.70;;;;;;4104702;28;20101;-85
2022/10/10 08:29:46;;;;;;;5.05;1.85;;;9.50;73.70;;;;;;4102775;28;20081;-85
2022/10/10 08:32:05;;;;;;;8.45;1.83;;;9.60;73.60;;;;;;4099574;28;20512;-85
2022/10/10 08:34:24;;;;;;;9.93;2.15;;;9.60;73.50;;;;;;4102877;28;20073;-85
2022/10/10 08:36:43;;;;;;;5.10;1.48;;;9.70;73.40;;;;;;4103200;28;20050;-85
2022/10/10 08:39:03;;;;;;;6.55;2.45;;;9.90;73.30;;;;;;4099737;28;20610;-86
2022/10/10 08:41:43;;;;;;;5.55;1.50;;;9.90;73.20;;;;;;4104493;28;20271;-85
2022/10/10 08:44:13;;;;;;;10.23;1.80;;;9.90;73.00;;;;;;4104528;28;20391;-85
2022/10/10 08:46:46;;;;;;;6.20;2.17;;;10.00;72.90;;;;;;4105881;28;20062;-85
2022/10/10 08:49:38;;;;;;;7.53;2.10;;;10.20;72.50;;;;;;4104375;28;20133;-85
2022/10/10 08:52:04;;;;;;;6.32;1.60;;;10.10;72.10;;;;;;4109264;28;20054;-85
2022/10/10 08:54:25;;;;;;;7.28;1.70;;;10.20;72.10;;;;;;4107895;28;20089;-86
2022/10/10 08:56:45;;;;;;;13.18;2.03;;;10.30;72.00;;;;;;4118231;28;20101;-85
2022/10/10 08:59:24;;;;;;;7.50;1.70;;;10.40;71.90;;;;;;4105409;28;20126;-85
2022/10/10 09:01:44;;;;;;;6.28;2.25;;;10.40;71.80;;;;;;4102304;28;20046;-85
2022/10/10 09:04:06;;;;;;;3.47;1.63;;;10.50;71.60;;;;;;4108936;28;20033;-85
2022/10/10 09:06:31;;;;;;;6.28;1.58;;;10.60;71.20;;;;;;4102021;28;20057;-84
2022/10/10 09:09:45;;;;;;;8.10;2.47;;;10.70;71.10;;;;;;4119734;28;20079;-85
2022/10/10 09:12:26;;;;;;;6.30;2.03;;;10.70;70.30;;;;;;4092763;28;20449;-86
2022/10/10 09:15:08;;;;;;;4.97;1.85;;;10.80;70.60;;;;;;4102349;28;20041;-86
2022/10/10 09:17:39;;;;;;;6.25;1.98;;;10.90;70.60;;;;;;4102467;28;20154;-84
2022/10/10 09:20:38;;;;;;;6.10;1.80;;;11.00;70.50;;;;;;4104504;28;20038;-84
2022/10/10 09:23:07;;;;;;;4.13;1.75;;;11.10;70.10;;;;;;4105226;28;20029;-83
2022/10/10 09:25:41;;;;;;;3.72;1.55;;;11.30;70.50;;;;;;4103666;28;20049;-84
2022/10/10 09:28:06;;;;;;;8.37;1.90;;;11.30;70.20;;;;;;4100697;28;20046;-84
2022/10/10 09:30:30;;;;;;;5.60;2.30;;;11.40;70.00;;;;;;4102471;28;20117;-84
2022/10/10 09:33:13;;;;;;;7.35;2.10;;;11.50;69.70;;;;;;4102050;28;20069;-83
2022/10/10 09:35:37;;;;;;;9.77;1.85;;;11.70;68.80;;;;;;4119192;28;20117;-84
2022/10/10 09:38:12;;;;;;;3.30;1.42;;;11.60;68.70;;;;;;4102534;28;20387;-85
2022/10/10 09:40:38;;;;;;;4.75;2.00;;;11.90;68.70;;;;;;4104375;28;20049;-84
2022/10/10 09:42:59;;;;;;;8.93;1.92;;;11.80;68.50;;;;;;4099990;28;20750;-84
2022/10/10 09:45:31;;;;;;;5.07;1.75;;;12.00;68.20;;;;;;4103999;28;20069;-85
2022/10/10 09:47:53;;;;;;;9.18;2.10;;;12.00;68.00;;;;;;4102363;28;20199;-85
2022/10/10 09:50:14;;;;;;;4.75;1.65;;;12.00;67.80;;;;;;4112566;28;20497;-84
2022/10/10 09:52:33;;;;;;;10.70;1.88;;;12.10;67.50;;;;;;4103302;28;20607;-85
2022/10/10 09:55:00;;;;;;;14.10;2.15;;;12.20;67.50;;;;;;4104478;28;20050;-83
2022/10/10 09:57:23;;;;;;;7.70;1.70;;;12.30;67.30;;;;;;4103668;28;20045;-84
2022/10/10 09:59:44;;;;;;;3.92;1.45;;;12.30;67.30;;;;;;4104084;28;20084;-84
2022/10/10 10:02:17;;;;;;;3.30;1.50;;;12.40;67.20;;;;;;4100425;28;20530;-85
2022/10/10 10:04:37;;;;;;;7.68;1.73;;;12.50;67.00;;;;;;4103204;28;20108;-85
2022/10/10 10:07:19;;;;;;;4.88;1.80;;;12.60;66.80;;;;;;4104234;28;20138;-85
2022/10/10 10:09:38;;;;;;;5.40;1.90;;;12.70;65.80;;;;;;4103140;28;20522;-85
2022/10/10 10:11:57;;;;;;;9.57;1.95;;;12.90;65.70;;;;;;4103020;28;21299;-84
2022/10/10 10:14:27;;;;;;;4.25;2.00;;;13.00;65.80;;;;;;4099893;28;21271;-86
2022/10/10 10:16:46;;;;;;;7.85;2.00;;;12.90;65.00;;;;;;4103716;28;20165;-86
2022/10/10 10:19:44;;;;;;;10.07;1.88;;;12.90;64.50;;;;;;4100675;28;20348;-87
2022/10/10 10:22:04;;;;;;;4.35;1.92;;;13.00;64.00;;;;;;4097074;28;20041;-87
2022/10/10 10:24:35;;;;;;;4.78;1.90;;;13.10;64.50;;;;;;4099792;28;20041;-87
2022/10/10 10:26:54;;;;;;;5.40;1.95;;;13.20;64.30;;;;;;4099171;28;20059;-85
2022/10/10 10:29:44;;;;;;;7.93;2.30;;;13.20;64.40;;;;;;4099221;28;20045;-86
2022/10/10 10:32:41;;;;;;;11.98;2.03;;;13.20;63.20;;;;;;4102561;28;20139;-85
2022/10/10 10:35:34;;;;;;;12.30;2.42;;;13.30;62.50;;;;;;4102573;28;20542;-86
2022/10/10 10:38:22;;;;;;;7.25;2.53;;;13.30;63.00;;;;;;4101583;28;20046;-85
2022/10/10 10:41:13;;;;;;;5.13;2.10;;;13.40;63.70;;;;;;4108938;28;20117;-84
2022/10/10 10:44:03;;;;;;;9.70;2.05;;;13.50;63.70;;;;;;4114798;28;20403;-87
2022/10/10 10:46:43;;;;;;;7.68;1.98;;;13.50;63.70;;;;;;4107732;28;20034;-87
2022/10/10 10:49:40;;;;;;;5.38;2.05;;;13.60;63.60;;;;;;4105103;28;20037;-86
2022/10/10 10:52:20;;;;;;;7.50;2.28;;;13.70;63.20;;;;;;4103679;28;20053;-86
2022/10/10 10:54:57;;;;;;;4.68;1.83;;;13.70;63.30;;;;;;4105160;28;20038;-85
2022/10/10 10:57:51;;;;;;;5.35;1.92;;;13.80;63.00;;;;;;4109078;28;20140;-85
2022/10/10 11:00:14;;;;;;;4.93;2.00;;;13.90;63.00;;;;;;4119157;28;20131;-87
2022/10/10 11:02:37;;;;;;;8.63;2.20;;;14.00;63.30;;;;;;4104486;28;20085;-85
2022/10/10 11:05:27;;;;;;;6.32;1.95;;;14.00;62.50;;;;;;4105841;28;20054;-85
2022/10/10 11:08:04;;;;;;;8.63;2.10;;;14.10;62.20;;;;;;4103566;28;21011;-85
2022/10/10 11:10:41;;;;;;;5.40;2.00;;;14.10;62.00;;;;;;4104649;28;20113;-85
2022/10/10 11:13:25;;;;;;;4.43;2.10;;;14.20;62.10;;;;;;4104068;28;20652;-85
2022/10/10 11:15:57;;;;;;;8.82;1.67;;;14.20;61.80;;;;;;4101250;28;21517;-85
2022/10/10 11:18:40;;;;;;;6.05;1.90;;;14.30;61.90;;;;;;4100499;28;20066;-85
2022/10/10 11:21:22;;;;;;;4.78;2.00;;;14.40;61.50;;;;;;4100017;28;20518;-85
2022/10/10 11:23:44;;;;;;;12.45;2.50;;;14.40;61.60;;;;;;4114027;28;20038;-87
2022/10/10 11:26:23;;;;;;;7.80;2.38;;;14.40;61.80;;;;;;4110865;28;20093;-86
2022/10/10 11:29:08;;;;;;;7.03;2.60;;;14.50;61.80;;;;;;4116442;28;20655;-87
2022/10/10 11:31:52;;;;;;;8.90;2.25;;;14.50;61.60;;;;;;4100095;28;20050;-86
2022/10/10 11:34:34;;;;;;;6.10;2.03;;;14.60;61.40;;;;;;4102781;28;20156;-87
2022/10/10 11:36:58;;;;;;;9.23;2.17;;;14.60;61.50;;;;;;4098586;28;20049;-86
2022/10/10 11:39:40;;;;;;;11.32;3.13;;;14.80;61.80;;;;;;4102760;28;20446;-87
2022/10/10 11:42:28;;;;;;;4.90;2.08;;;14.80;61.40;;;;;;4103465;28;20041;-86
2022/10/10 11:44:57;;;;;;;10.35;2.40;;;14.90;61.30;;;;;;4101169;28;20113;-86
2022/10/10 11:47:38;;;;;;;9.30;2.35;;;14.80;60.50;;;;;;4099476;28;20038;-87
2022/10/10 11:50:18;;;;;;;7.22;2.17;;;14.90;60.50;;;;;;4102901;28;20093;-87
2022/10/10 11:52:57;;;;;;;7.18;2.30;;;14.90;60.50;;;;;;4100028;28;20517;-87
2022/10/10 11:55:32;;;;;;;6.32;2.08;;;14.90;60.80;;;;;;4104180;28;20070;-86
2022/10/10 11:57:58;;;;;;;;;;;15.00;60.50;;;;;;4104490;28;20085;-87
2022/10/10 12:00:18;;;;;;;7.85;2.53;;;15.00;60.80;;;;;;4112055;28;19972;-86
2022/10/10 12:02:41;;;;;;;7.93;2.70;;;15.10;60.90;;;;;;4100443;28;20274;-87
2022/10/10 12:05:04;;;;;;;5.23;2.03;;;15.10;60.70;;;;;;4097908;28;20133;-87
2022/10/10 12:07:40;;;;;;;5.78;2.05;;;15.20;60.80;;;;;;4096544;28;20574;-87
2022/10/10 12:10:06;;;;;;;14.90;2.20;;;15.30;60.70;;;;;;4106727;28;20081;-87
2022/10/10 12:12:38;;;;;;;7.65;2.03;;;15.30;60.90;;;;;;4100925;28;20049;-86
2022/10/10 12:15:00;;;;;;;6.30;2.50;;;15.30;60.40;;;;;;4101307;28;20129;-86
2022/10/10 12:17:31;;;;;;;5.57;2.38;;;15.50;60.40;;;;;;4103427;28;20053;-87
2022/10/10 12:19:50;;;;;;;8.45;2.83;;;15.40;60.40;;;;;;4101811;28;20041;-85
2022/10/10 12:22:22;;;;;;;6.10;2.45;;;15.40;60.10;;;;;;4124789;28;20058;-84
2022/10/10 12:25:19;;;;;;;10.93;2.55;;;15.40;59.90;;;;;;4105273;28;20046;-85
2022/10/10 12:27:44;;;;;;;7.53;2.20;;;15.50;59.50;;;;;;4079283;28;20101;-85
2022/10/10 12:30:07;;;;;;;3.47;1.98;;;15.50;59.80;;;;;;4101391;28;20050;-86
2022/10/10 12:32:39;;;;;;;6.22;2.30;;;15.50;60.00;;;;;;4096789;28;20039;-86
2022/10/10 12:35:00;;;;;;;8.65;2.33;;;15.50;60.00;;;;;;4101249;28;20045;-86